Time;durP1;ratioP1;P1;durP2;ratioP2;P2;SDS_P1;SDS_P2;PMS_P1;PMS_P2;Temp;Humidity;BMP_temperature;BMP_pressure;BME280_temperature;BME280_humidity;BME280_pressure;Samples;Min_cycle;Max_cycle;Signal;HPM_P1;HPM_P2
2022/09/01 00:01:38;;;;;;;1.67;1.25;;;21.10;91.10;;;;;;4936704;29;20220;-74
2022/09/01 00:04:07;;;;;;;2.47;1.10;;;21.10;91.20;;;;;;4936910;29;20200;-73
2022/09/01 00:06:33;;;;;;;1.40;1.30;;;21.00;91.10;;;;;;4936778;29;20217;-74
2022/09/01 00:09:12;;;;;;;1.15;1.02;;;21.00;91.20;;;;;;4932474;29;20258;-74
2022/09/01 00:11:39;;;;;;;1.10;1.00;;;21.00;91.20;;;;;;4939952;29;20216;-73
2022/09/01 00:14:08;;;;;;;1.13;1.02;;;21.00;91.20;;;;;;4940822;29;20197;-73
2022/09/01 00:16:34;;;;;;;1.20;1.10;;;20.90;91.30;;;;;;4939595;29;20205;-74
2022/09/01 00:19:00;;;;;;;2.35;1.20;;;20.90;91.30;;;;;;4935690;29;20213;-74
2022/09/01 00:21:31;;;;;;;1.65;1.10;;;20.80;91.20;;;;;;4936519;29;20233;-74
2022/09/01 00:23:57;;;;;;;1.70;1.10;;;20.80;91.40;;;;;;4940151;29;20280;-73
2022/09/01 00:26:23;;;;;;;1.42;1.20;;;20.80;91.40;;;;;;4939524;29;20209;-74
2022/09/01 00:28:53;;;;;;;2.97;1.20;;;20.80;91.40;;;;;;4939944;28;20328;-74
2022/09/01 00:31:20;;;;;;;1.10;0.98;;;20.80;91.50;;;;;;4940097;29;20173;-74
2022/09/01 00:33:49;;;;;;;1.23;1.13;;;20.70;91.40;;;;;;4935287;29;20248;-74
2022/09/01 00:36:16;;;;;;;1.67;1.30;;;20.70;91.50;;;;;;4954019;29;20178;-75
2022/09/01 00:38:42;;;;;;;2.35;1.30;;;20.60;91.50;;;;;;4939858;29;20514;-73
2022/09/01 00:41:07;;;;;;;1.20;1.10;;;20.60;91.50;;;;;;4955043;29;20198;-75
2022/09/01 00:43:47;;;;;;;1.20;1.10;;;20.60;91.50;;;;;;4937286;29;20185;-73
2022/09/01 00:46:20;;;;;;;1.20;1.08;;;20.60;91.60;;;;;;4937224;29;20195;-73
2022/09/01 00:48:51;;;;;;;1.15;1.02;;;20.50;91.60;;;;;;4939741;29;20300;-74
2022/09/01 00:51:17;;;;;;;1.15;1.00;;;20.50;91.60;;;;;;4951547;29;20177;-73
2022/09/01 00:53:44;;;;;;;1.42;1.20;;;20.50;91.70;;;;;;4939322;29;20196;-73
2022/09/01 00:56:11;;;;;;;1.10;0.93;;;20.40;91.70;;;;;;4939064;29;20183;-73
2022/09/01 00:58:40;;;;;;;1.65;1.20;;;20.40;92.10;;;;;;4934762;29;20189;-73
2022/09/01 01:01:08;;;;;;;1.38;1.27;;;20.40;92.00;;;;;;4934432;29;20206;-73
2022/09/01 01:03:38;;;;;;;2.58;1.15;;;20.40;92.10;;;;;;4933921;29;21759;-73
2022/09/01 01:06:09;;;;;;;1.42;1.17;;;20.40;92.10;;;;;;4940292;29;20269;-73
2022/09/01 01:08:56;;;;;;;1.27;1.17;;;20.40;92.30;;;;;;4937123;29;20213;-74
2022/09/01 01:11:23;;;;;;;1.23;1.10;;;20.40;92.30;;;;;;4939964;29;20260;-73
2022/09/01 01:13:56;;;;;;;1.20;1.00;;;20.30;92.20;;;;;;4938841;29;20177;-73
2022/09/01 01:16:25;;;;;;;1.38;1.10;;;20.20;92.50;;;;;;4935003;29;20233;-73
2022/09/01 01:18:54;;;;;;;1.75;1.10;;;20.20;92.40;;;;;;4938577;29;20206;-73
2022/09/01 01:24:44;;;;;;;2.15;1.05;;;20.10;92.60;;;;;;4937006;29;20220;-73
2022/09/01 01:27:16;;;;;;;1.25;1.15;;;20.10;93.00;;;;;;4935560;29;20209;-74
2022/09/01 01:29:46;;;;;;;1.23;1.00;;;20.00;92.50;;;;;;4936784;29;20212;-74
2022/09/01 01:32:12;;;;;;;1.80;1.10;;;20.00;92.60;;;;;;4939224;29;20170;-73
2022/09/01 01:34:42;;;;;;;1.20;1.05;;;19.90;92.70;;;;;;4938625;28;20188;-70
2022/09/01 01:37:09;;;;;;;1.58;1.20;;;19.90;92.90;;;;;;4938147;29;20216;-73
2022/09/01 01:39:39;;;;;;;1.60;1.17;;;19.80;93.00;;;;;;4937596;29;20240;-73
2022/09/01 01:42:08;;;;;;;1.30;1.08;;;19.80;93.00;;;;;;4938324;29;20204;-74
2022/09/01 01:44:37;;;;;;;1.17;1.05;;;19.80;93.00;;;;;;4939049;29;20205;-74
2022/09/01 01:47:07;;;;;;;2.15;1.20;;;19.70;93.20;;;;;;4939441;29;20212;-71
2022/09/01 01:49:34;;;;;;;1.40;1.23;;;19.70;93.20;;;;;;4954863;29;20191;-74
2022/09/01 01:52:00;;;;;;;1.27;1.08;;;19.70;93.30;;;;;;4960646;28;20277;-73
2022/09/01 01:54:30;;;;;;;2.20;1.20;;;19.60;93.30;;;;;;4937016;29;20264;-73
2022/09/01 01:56:58;;;;;;;2.28;1.20;;;19.60;93.50;;;;;;4938781;29;20170;-73
2022/09/01 01:59:29;;;;;;;1.13;1.02;;;19.60;93.50;;;;;;4942383;29;20212;-72
2022/09/01 02:01:55;;;;;;;1.40;1.30;;;19.60;93.60;;;;;;4949899;29;20177;-73
2022/09/01 02:04:24;;;;;;;1.40;1.15;;;19.50;93.70;;;;;;4937654;29;20242;-74
2022/09/01 02:06:50;;;;;;;1.10;1.00;;;19.50;93.80;;;;;;4934592;29;20201;-74
2022/09/01 02:09:18;;;;;;;1.20;1.10;;;19.50;93.90;;;;;;4937113;29;20529;-73
2022/09/01 02:11:48;;;;;;;2.53;1.17;;;19.50;94.00;;;;;;4932978;29;20194;-73
2022/09/01 02:14:14;;;;;;;3.95;1.27;;;19.50;94.00;;;;;;4937448;29;20181;-73
2022/09/01 02:16:45;;;;;;;1.45;1.10;;;19.50;94.10;;;;;;4950543;29;20181;-74
2022/09/01 02:19:13;;;;;;;1.10;1.00;;;19.50;94.30;;;;;;4937653;29;20239;-73
2022/09/01 02:21:43;;;;;;;1.20;1.10;;;19.50;94.40;;;;;;4935961;29;20190;-72
2022/09/01 02:24:11;;;;;;;1.30;1.10;;;19.40;94.30;;;;;;4947453;29;20194;-74
2022/09/01 02:26:46;;;;;;;1.13;1.02;;;19.40;94.50;;;;;;4936552;29;20221;-72
2022/09/01 02:29:19;;;;;;;1.38;1.15;;;19.40;94.50;;;;;;4934631;29;20232;-72
2022/09/01 02:31:50;;;;;;;1.85;1.00;;;19.40;94.50;;;;;;4936538;29;20205;-74
2022/09/01 02:34:20;;;;;;;1.38;1.17;;;19.40;94.60;;;;;;4937568;29;20182;-74
2022/09/01 02:36:49;;;;;;;1.20;1.02;;;19.40;94.60;;;;;;4953393;29;20192;-75
2022/09/01 02:39:26;;;;;;;1.40;1.20;;;19.40;94.80;;;;;;4935684;29;20252;-74
2022/09/01 02:41:53;;;;;;;1.67;1.20;;;19.40;95.10;;;;;;4936699;29;20189;-72
2022/09/01 02:44:21;;;;;;;1.10;1.00;;;19.30;94.80;;;;;;4939348;29;20209;-74
2022/09/01 02:46:47;;;;;;;1.60;1.20;;;19.30;94.80;;;;;;4937623;29;20221;-73
2022/09/01 02:49:27;;;;;;;1.10;0.98;;;19.30;94.90;;;;;;4952355;29;20356;-71
2022/09/01 02:52:01;;;;;;;1.65;1.10;;;19.30;95.20;;;;;;4936776;29;20181;-74
2022/09/01 02:54:30;;;;;;;1.50;1.20;;;19.30;95.20;;;;;;4937771;29;20176;-74
2022/09/01 02:56:59;;;;;;;1.30;1.10;;;19.20;95.40;;;;;;4932684;29;20186;-74
2022/09/01 02:59:29;;;;;;;2.40;1.20;;;19.20;95.10;;;;;;4934236;29;20205;-73
2022/09/01 03:01:57;;;;;;;1.45;1.20;;;19.20;95.30;;;;;;4934189;29;20177;-73
2022/09/01 03:04:33;;;;;;;2.05;1.20;;;19.20;95.40;;;;;;4930195;29;20181;-72
2022/09/01 03:07:00;;;;;;;1.30;1.20;;;19.10;95.20;;;;;;4936960;29;20219;-73
2022/09/01 03:09:26;;;;;;;1.30;1.20;;;19.10;95.20;;;;;;4937431;29;20209;-74
2022/09/01 03:11:53;;;;;;;1.55;1.45;;;19.00;95.30;;;;;;4933876;29;20178;-74
2022/09/01 03:14:23;;;;;;;1.70;1.20;;;19.00;95.40;;;;;;4934789;29;20192;-73
2022/09/01 03:16:51;;;;;;;1.60;1.40;;;18.90;95.50;;;;;;4960609;28;20181;-73
2022/09/01 03:19:19;;;;;;;2.40;1.10;;;18.80;95.50;;;;;;4930860;29;20229;-74
2022/09/01 03:21:48;;;;;;;1.30;1.20;;;18.80;95.80;;;;;;4936406;29;20190;-73
2022/09/01 03:24:18;;;;;;;1.17;1.08;;;18.70;95.70;;;;;;4936993;29;20185;-74
2022/09/01 03:26:45;;;;;;;1.73;1.60;;;18.70;95.90;;;;;;4933245;29;20304;-74
2022/09/01 03:29:11;;;;;;;4.47;2.65;;;18.60;96.10;;;;;;4951172;29;20177;-72
2022/09/01 03:31:39;;;;;;;4.32;3.80;;;18.50;96.10;;;;;;4947936;29;20192;-74
2022/09/01 03:34:05;;;;;;;2.70;2.50;;;18.50;96.30;;;;;;4928629;29;20189;-71
2022/09/01 03:36:33;;;;;;;2.65;2.40;;;18.40;96.40;;;;;;4935216;29;20257;-72
2022/09/01 03:39:00;;;;;;;4.28;3.38;;;18.30;96.80;;;;;;4935213;29;20186;-72
2022/09/01 03:41:27;;;;;;;5.10;4.25;;;18.30;96.70;;;;;;4933887;29;20228;-71
2022/09/01 03:43:59;;;;;;;4.03;2.65;;;18.30;97.00;;;;;;4927184;29;20654;-73
2022/09/01 03:46:29;;;;;;;2.97;2.58;;;18.30;97.00;;;;;;4945896;28;20185;-73
2022/09/01 03:48:57;;;;;;;2.20;1.75;;;18.20;97.10;;;;;;4943760;29;20300;-71
2022/09/01 03:51:24;;;;;;;5.03;1.63;;;18.20;97.20;;;;;;4941321;29;20251;-75
2022/09/01 03:53:55;;;;;;;2.20;1.85;;;18.20;97.30;;;;;;4958677;29;20295;-74
2022/09/01 03:56:26;;;;;;;3.90;2.63;;;18.20;97.60;;;;;;4941823;29;20281;-73
2022/09/01 03:58:53;;;;;;;6.05;4.78;;;18.20;97.70;;;;;;4940640;29;20185;-73
2022/09/01 04:01:19;;;;;;;5.65;3.70;;;18.10;97.70;;;;;;4940130;29;20208;-73
2022/09/01 04:03:47;;;;;;;3.85;2.63;;;18.10;97.80;;;;;;4941557;29;20174;-73
2022/09/01 04:06:17;;;;;;;2.47;2.10;;;18.10;97.90;;;;;;4953871;28;20174;-73
2022/09/01 04:08:46;;;;;;;3.50;1.80;;;18.10;98.10;;;;;;4958172;29;20197;-74
2022/09/01 04:11:17;;;;;;;2.50;1.60;;;18.00;98.50;;;;;;4941992;29;20188;-73
2022/09/01 04:13:46;;;;;;;1.85;1.52;;;18.00;98.70;;;;;;4942680;29;20178;-73
2022/09/01 04:19:24;;;;;;;1.92;1.65;;;17.90;99.20;;;;;;4954392;28;20188;-71
2022/09/01 04:21:54;;;;;;;2.33;1.95;;;17.90;99.00;;;;;;4938579;29;20201;-74
2022/09/01 04:24:27;;;;;;;3.05;2.20;;;17.80;98.80;;;;;;4941628;29;20216;-74
2022/09/01 04:26:55;;;;;;;2.90;2.53;;;17.80;99.10;;;;;;4939911;29;20200;-74
2022/09/01 04:29:27;;;;;;;2.92;2.63;;;17.80;99.00;;;;;;4937293;29;20178;-74
2022/09/01 04:32:02;;;;;;;2.47;2.28;;;17.70;99.20;;;;;;4932710;29;20275;-74
2022/09/01 04:34:35;;;;;;;3.10;1.92;;;17.70;99.70;;;;;;4955461;29;20177;-73
2022/09/01 04:37:04;;;;;;;2.17;1.85;;;17.60;99.50;;;;;;4953131;29;20182;-73
2022/09/01 04:39:30;;;;;;;6.47;4.78;;;17.60;99.60;;;;;;4956270;29;20182;-74
2022/09/01 04:42:03;;;;;;;5.63;3.25;;;17.60;99.80;;;;;;4943346;29;20296;-68
2022/09/01 04:44:31;;;;;;;4.18;2.90;;;17.60;99.90;;;;;;4942841;29;20188;-67
2022/09/01 04:46:56;;;;;;;3.50;2.58;;;17.60;99.90;;;;;;4941346;29;20209;-67
2022/09/01 04:49:23;;;;;;;2.58;2.15;;;17.60;99.90;;;;;;4941324;29;20205;-67
2022/09/01 04:51:50;;;;;;;4.60;2.10;;;17.60;99.90;;;;;;4941023;29;20177;-68
2022/09/01 04:54:20;;;;;;;1.92;1.60;;;17.60;99.90;;;;;;4941472;29;20197;-67
2022/09/01 04:56:49;;;;;;;1.50;1.30;;;17.60;99.90;;;;;;4954574;28;20268;-67
2022/09/01 04:59:16;;;;;;;2.03;1.50;;;17.60;99.90;;;;;;4936619;29;21945;-69
2022/09/01 05:01:45;;;;;;;2.25;1.38;;;17.60;99.90;;;;;;4937749;29;20209;-72
2022/09/01 05:04:27;;;;;;;1.88;1.48;;;17.60;99.90;;;;;;4939101;29;20245;-71
2022/09/01 05:06:59;;;;;;;1.40;1.30;;;17.60;99.90;;;;;;4939274;29;20352;-72
2022/09/01 05:09:30;;;;;;;1.55;1.30;;;17.60;99.90;;;;;;4937455;29;20264;-70
2022/09/01 05:12:00;;;;;;;2.50;1.30;;;17.60;99.90;;;;;;4936510;28;20201;-71
2022/09/01 05:14:29;;;;;;;1.90;1.50;;;17.60;99.90;;;;;;4937783;28;20186;-72
2022/09/01 05:16:57;;;;;;;1.45;1.15;;;17.60;99.90;;;;;;4938124;29;20283;-71
2022/09/01 05:19:28;;;;;;;1.85;1.50;;;17.60;99.90;;;;;;4937937;29;20196;-71
2022/09/01 05:21:57;;;;;;;1.77;1.20;;;17.60;99.90;;;;;;4937845;29;20272;-71
2022/09/01 05:24:28;;;;;;;2.03;1.38;;;17.70;99.90;;;;;;4937837;29;20185;-71
2022/09/01 05:26:59;;;;;;;1.52;1.27;;;17.70;99.90;;;;;;4937242;29;20249;-72
2022/09/01 05:29:26;;;;;;;1.48;1.20;;;17.70;99.90;;;;;;4939967;28;20221;-72
2022/09/01 05:31:55;;;;;;;2.03;1.30;;;17.70;99.90;;;;;;4953618;29;20197;-72
2022/09/01 05:34:35;;;;;;;2.50;1.20;;;17.70;99.90;;;;;;4938026;29;20185;-73
2022/09/01 05:37:00;;;;;;;1.35;1.10;;;17.70;99.90;;;;;;4940715;29;20268;-72
2022/09/01 05:39:27;;;;;;;2.83;1.30;;;17.70;99.90;;;;;;4949811;29;20181;-73
2022/09/01 05:41:53;;;;;;;1.65;1.25;;;17.80;99.90;;;;;;4953100;29;20197;-72
2022/09/01 05:44:23;;;;;;;1.20;1.10;;;17.80;99.90;;;;;;4948136;29;20205;-73
2022/09/01 05:46:52;;;;;;;1.23;1.13;;;17.80;99.90;;;;;;4937327;29;20212;-74
2022/09/01 05:49:17;;;;;;;1.55;1.23;;;17.80;99.90;;;;;;4937437;29;20197;-73
2022/09/01 05:51:52;;;;;;;1.48;1.20;;;17.80;99.90;;;;;;4936528;29;20208;-71
2022/09/01 05:54:21;;;;;;;2.65;1.40;;;17.80;99.90;;;;;;4933515;29;20181;-73
2022/09/01 05:56:48;;;;;;;1.70;1.35;;;17.80;99.90;;;;;;4948600;29;20260;-73
2022/09/01 05:59:14;;;;;;;4.20;1.45;;;17.80;99.90;;;;;;4937356;29;20205;-72
2022/09/01 06:01:41;;;;;;;1.40;1.20;;;17.80;99.90;;;;;;4937309;29;20177;-74
2022/09/01 06:04:12;;;;;;;1.83;1.40;;;17.90;99.90;;;;;;4936944;29;20200;-72
2022/09/01 06:06:48;;;;;;;1.42;1.33;;;17.90;99.90;;;;;;4937131;29;20292;-73
2022/09/01 06:09:20;;;;;;;2.20;1.60;;;18.00;99.90;;;;;;4936371;29;20184;-70
2022/09/01 06:11:48;;;;;;;2.20;1.40;;;18.00;99.90;;;;;;4937498;29;20178;-71
2022/09/01 06:14:15;;;;;;;2.20;1.40;;;18.00;99.90;;;;;;4953625;29;20245;-71
2022/09/01 06:16:46;;;;;;;2.35;1.38;;;18.10;99.90;;;;;;4937827;29;20206;-71
2022/09/01 06:19:12;;;;;;;1.75;1.30;;;18.20;99.90;;;;;;4937903;29;20185;-71
2022/09/01 06:21:38;;;;;;;2.05;1.42;;;18.20;99.90;;;;;;4937609;29;20188;-70
2022/09/01 06:24:05;;;;;;;2.20;1.17;;;18.20;99.90;;;;;;4953219;29;20269;-69
2022/09/01 06:26:34;;;;;;;1.35;1.20;;;18.30;99.90;;;;;;4936710;29;20189;-71
2022/09/01 06:29:04;;;;;;;6.32;1.35;;;18.30;99.90;;;;;;4936994;29;20232;-70
2022/09/01 06:31:33;;;;;;;1.58;1.38;;;18.30;99.90;;;;;;4946647;29;20209;-71
2022/09/01 06:34:02;;;;;;;2.85;1.55;;;18.30;99.90;;;;;;4936471;29;20228;-71
2022/09/01 06:36:31;;;;;;;2.28;1.40;;;18.40;99.90;;;;;;4939963;29;20260;-71
2022/09/01 06:38:59;;;;;;;2.55;1.60;;;18.40;99.90;;;;;;4935596;29;20203;-70
2022/09/01 06:41:25;;;;;;;2.20;1.42;;;18.50;99.90;;;;;;4935489;29;20205;-71
2022/09/01 06:43:52;;;;;;;2.17;1.58;;;18.50;99.90;;;;;;4935543;29;20173;-71
2022/09/01 06:46:22;;;;;;;1.80;1.25;;;18.50;99.90;;;;;;4951876;29;20263;-72
2022/09/01 06:48:52;;;;;;;2.30;1.55;;;18.60;99.90;;;;;;4936642;29;20200;-72
2022/09/01 06:51:24;;;;;;;3.38;1.27;;;18.60;99.90;;;;;;4934287;29;20264;-73
2022/09/01 06:53:55;;;;;;;1.25;1.05;;;18.60;99.90;;;;;;4935932;29;20180;-71
2022/09/01 06:56:27;;;;;;;1.27;0.98;;;18.70;99.90;;;;;;4934332;29;20185;-71
2022/09/01 06:58:55;;;;;;;1.40;1.00;;;18.60;99.90;;;;;;4932626;29;20184;-71
2022/09/01 07:01:22;;;;;;;1.30;1.10;;;18.70;99.90;;;;;;4936029;29;20192;-72
2022/09/01 07:03:50;;;;;;;1.88;1.10;;;18.70;99.90;;;;;;4935711;29;20201;-71
2022/09/01 07:06:18;;;;;;;1.35;0.95;;;18.80;99.90;;;;;;4936348;29;20182;-72
2022/09/01 07:08:48;;;;;;;0.98;0.90;;;18.80;99.90;;;;;;4935039;29;20209;-73
2022/09/01 07:11:27;;;;;;;1.50;1.20;;;18.90;99.90;;;;;;4935978;29;20188;-71
2022/09/01 07:14:00;;;;;;;2.65;1.30;;;18.90;99.90;;;;;;4933618;29;20185;-72
2022/09/01 07:16:27;;;;;;;1.50;1.20;;;18.90;99.90;;;;;;4940362;29;20192;-71
2022/09/01 07:18:58;;;;;;;1.42;1.23;;;19.00;99.90;;;;;;4934661;29;20166;-73
2022/09/01 07:21:30;;;;;;;2.03;1.10;;;19.00;99.90;;;;;;4949875;29;20217;-72
2022/09/01 07:24:05;;;;;;;1.10;1.00;;;19.10;99.90;;;;;;4935228;29;20181;-72
2022/09/01 07:26:34;;;;;;;1.65;1.10;;;19.10;99.90;;;;;;4931407;29;20197;-70
2022/09/01 07:29:05;;;;;;;1.40;1.00;;;19.20;99.90;;;;;;4936360;29;22153;-71
2022/09/01 07:31:40;;;;;;;1.42;1.05;;;19.20;99.90;;;;;;4934564;29;20209;-71
2022/09/01 07:34:09;;;;;;;1.10;0.88;;;19.30;99.90;;;;;;4918068;29;20181;-71
2022/09/01 07:36:36;;;;;;;1.35;0.90;;;19.30;99.90;;;;;;4917742;29;20447;-71
2022/09/01 07:39:03;;;;;;;1.30;0.85;;;19.40;99.90;;;;;;4918532;29;20216;-74
2022/09/01 07:41:29;;;;;;;2.30;1.35;;;19.40;99.90;;;;;;4918422;29;20174;-72
2022/09/01 07:43:55;;;;;;;1.35;1.02;;;19.50;99.90;;;;;;4931861;29;20229;-73
2022/09/01 07:46:27;;;;;;;2.97;1.10;;;19.50;99.90;;;;;;4949698;29;20190;-71
2022/09/01 07:48:54;;;;;;;1.20;0.90;;;19.60;99.90;;;;;;4937269;29;20284;-72
2022/09/01 07:51:25;;;;;;;2.10;1.20;;;19.60;99.90;;;;;;4938496;29;20330;-72
2022/09/01 07:53:51;;;;;;;1.13;1.02;;;19.70;99.90;;;;;;4938291;29;20182;-71
2022/09/01 07:56:19;;;;;;;1.00;0.90;;;19.70;99.90;;;;;;4937427;29;20173;-71
2022/09/01 07:58:49;;;;;;;1.52;1.10;;;19.80;99.90;;;;;;4934219;29;20210;-71
2022/09/01 08:01:22;;;;;;;0.77;0.70;;;19.90;99.90;;;;;;4934749;29;20268;-72
2022/09/01 08:03:52;;;;;;;1.50;1.10;;;19.90;99.90;;;;;;4934663;29;20225;-74
2022/09/01 08:06:23;;;;;;;1.52;1.10;;;20.00;99.90;;;;;;4934091;29;20297;-72
2022/09/01 08:08:50;;;;;;;1.08;0.90;;;20.10;99.90;;;;;;4934162;29;20190;-73
2022/09/01 08:11:19;;;;;;;1.05;0.85;;;20.10;99.90;;;;;;4933761;29;20201;-73
2022/09/01 08:13:50;;;;;;;2.10;0.95;;;20.20;99.90;;;;;;4934075;29;20393;-72
2022/09/01 08:16:16;;;;;;;1.55;0.90;;;20.30;99.90;;;;;;4937089;29;20189;-73
2022/09/01 08:18:43;;;;;;;1.77;1.10;;;20.30;99.90;;;;;;4952775;29;20214;-72
2022/09/01 08:21:11;;;;;;;1.20;1.00;;;20.40;99.90;;;;;;4953061;29;20188;-72
2022/09/01 08:23:37;;;;;;;2.22;1.00;;;20.40;99.90;;;;;;4953195;29;20205;-72
2022/09/01 08:26:12;;;;;;;1.77;1.17;;;20.50;99.90;;;;;;4937585;29;20185;-72
2022/09/01 08:28:38;;;;;;;1.33;1.15;;;20.60;99.90;;;;;;4920007;29;20210;-72
2022/09/01 08:31:11;;;;;;;1.92;1.05;;;20.70;99.90;;;;;;4941798;29;20184;-72
2022/09/01 08:33:38;;;;;;;1.10;0.90;;;20.70;99.90;;;;;;4969859;28;20196;-71
2022/09/01 08:36:09;;;;;;;1.50;1.00;;;20.80;99.90;;;;;;4940835;29;20184;-72
2022/09/01 08:38:35;;;;;;;1.02;0.85;;;20.90;99.90;;;;;;4940115;29;20260;-73
2022/09/01 08:41:04;;;;;;;1.67;0.80;;;20.90;99.90;;;;;;4942313;29;20268;-72
2022/09/01 08:43:36;;;;;;;1.65;0.98;;;21.00;99.90;;;;;;4926179;29;20193;-72
2022/09/01 08:46:14;;;;;;;2.03;0.90;;;21.00;99.80;;;;;;4940657;29;20236;-73
2022/09/01 08:48:52;;;;;;;1.83;1.00;;;21.10;99.60;;;;;;4957480;29;20209;-71
2022/09/01 08:51:38;;;;;;;1.45;0.80;;;21.20;99.80;;;;;;4956484;29;20205;-71
2022/09/01 08:54:13;;;;;;;1.45;1.00;;;21.30;99.90;;;;;;4940910;29;20165;-71
2022/09/01 08:56:43;;;;;;;2.67;0.90;;;21.30;99.50;;;;;;4939103;29;20209;-72
2022/09/01 08:59:10;;;;;;;1.83;1.17;;;21.40;99.50;;;;;;4939546;29;20185;-73
2022/09/01 09:01:58;;;;;;;4.05;1.02;;;21.50;99.50;;;;;;4922216;29;20177;-71
2022/09/01 09:04:47;;;;;;;1.77;1.20;;;21.60;99.10;;;;;;4937223;29;20165;-72
2022/09/01 09:07:47;;;;;;;2.60;1.00;;;21.70;99.10;;;;;;4937791;29;20212;-73
2022/09/01 09:10:30;;;;;;;1.95;1.15;;;21.80;99.10;;;;;;4936800;29;20172;-72
2022/09/01 09:13:12;;;;;;;1.52;1.10;;;21.90;99.00;;;;;;4936819;29;20249;-72
2022/09/01 09:15:52;;;;;;;2.20;1.10;;;22.00;99.10;;;;;;4938050;29;20229;-71
2022/09/01 09:18:26;;;;;;;1.05;0.95;;;22.10;99.40;;;;;;4936690;29;20184;-72
2022/09/01 09:20:53;;;;;;;1.85;1.00;;;22.20;99.20;;;;;;4946221;29;20216;-70
2022/09/01 09:23:35;;;;;;;2.25;1.10;;;22.30;99.30;;;;;;4938841;29;20192;-72
2022/09/01 09:26:01;;;;;;;1.48;1.00;;;22.40;98.80;;;;;;4939677;29;20211;-72
2022/09/01 09:28:31;;;;;;;1.27;1.05;;;22.50;99.10;;;;;;4939130;29;20201;-71
2022/09/01 09:31:44;;;;;;;1.98;1.30;;;22.50;98.70;;;;;;4934193;29;20201;-71
2022/09/01 09:34:32;;;;;;;4.05;1.52;;;22.70;97.60;;;;;;4934627;29;20178;-73
2022/09/01 09:37:16;;;;;;;2.72;1.30;;;22.80;98.00;;;;;;4902828;29;20217;-71
2022/09/01 09:39:42;;;;;;;3.30;1.27;;;22.90;97.90;;;;;;4920963;29;20177;-72
2022/09/01 09:42:13;;;;;;;1.83;1.20;;;23.00;97.90;;;;;;4937056;29;20237;-71
2022/09/01 09:44:49;;;;;;;1.63;1.30;;;23.10;97.70;;;;;;4937925;29;20178;-70
2022/09/01 09:47:34;;;;;;;4.45;1.30;;;23.20;97.40;;;;;;4951824;29;20209;-71
2022/09/01 09:50:23;;;;;;;1.48;1.08;;;23.30;97.10;;;;;;4951895;29;20196;-71
2022/09/01 09:53:04;;;;;;;0.93;0.80;;;23.40;97.20;;;;;;4935575;29;20205;-71
2022/09/01 09:55:32;;;;;;;1.50;0.80;;;23.60;97.80;;;;;;4937135;29;20181;-71
2022/09/01 09:58:10;;;;;;;3.22;0.90;;;23.70;97.60;;;;;;4937527;29;20193;-72
2022/09/01 10:00:36;;;;;;;0.93;0.80;;;23.90;96.70;;;;;;4953550;29;20236;-72
2022/09/01 10:03:08;;;;;;;1.25;0.90;;;24.30;97.20;;;;;;4946417;29;20232;-72
2022/09/01 10:05:40;;;;;;;1.20;1.00;;;24.80;96.00;;;;;;4933809;29;20292;-72
2022/09/01 10:08:26;;;;;;;1.00;0.80;;;25.50;95.30;;;;;;4936990;29;20205;-71
2022/09/01 10:10:53;;;;;;;1.83;1.10;;;26.20;94.00;;;;;;4923971;29;20192;-72
2022/09/01 10:13:21;;;;;;;2.88;1.45;;;26.80;94.00;;;;;;4937711;29;20209;-73
2022/09/01 10:15:53;;;;;;;1.65;1.05;;;27.30;92.70;;;;;;4936010;29;20273;-71
2022/09/01 10:18:22;;;;;;;0.80;0.80;;;27.80;91.60;;;;;;4934262;29;20202;-72
2022/09/01 10:20:58;;;;;;;3.30;1.30;;;28.30;91.50;;;;;;4936451;29;20208;-72
2022/09/01 10:23:26;;;;;;;1.52;0.93;;;28.60;90.00;;;;;;4937666;29;20272;-72
2022/09/01 10:26:01;;;;;;;1.13;1.02;;;29.00;90.50;;;;;;4936771;29;20193;-71
2022/09/01 10:28:30;;;;;;;1.55;1.10;;;29.20;87.60;;;;;;4949694;29;20200;-72
2022/09/01 10:30:58;;;;;;;1.35;1.10;;;29.20;86.80;;;;;;4952134;29;20185;-72
2022/09/01 10:33:24;;;;;;;2.17;1.50;;;29.00;85.50;;;;;;4938586;28;20197;-72
2022/09/01 10:35:51;;;;;;;1.75;1.30;;;28.80;84.60;;;;;;4937503;29;20200;-73
2022/09/01 10:38:22;;;;;;;3.80;1.35;;;28.60;84.50;;;;;;4953548;29;20193;-73
2022/09/01 10:41:05;;;;;;;1.75;1.27;;;28.80;85.10;;;;;;4937077;29;20200;-73
2022/09/01 10:43:49;;;;;;;1.48;0.95;;;29.00;85.00;;;;;;4937737;29;20285;-72
2022/09/01 10:46:21;;;;;;;1.45;1.25;;;29.40;81.60;;;;;;4930182;29;20197;-73
2022/09/01 10:48:52;;;;;;;1.35;1.15;;;29.70;81.60;;;;;;4949871;28;20205;-72
2022/09/01 10:51:20;;;;;;;1.88;1.38;;;29.90;80.70;;;;;;4932554;29;20181;-74
2022/09/01 10:53:56;;;;;;;2.80;1.67;;;30.20;82.60;;;;;;4949980;28;20199;-73
2022/09/01 10:56:43;;;;;;;2.50;1.50;;;30.40;80.10;;;;;;4936287;29;20173;-72
2022/09/01 10:59:24;;;;;;;1.75;1.17;;;30.70;80.10;;;;;;4944774;29;21788;-72
2022/09/01 11:01:49;;;;;;;3.47;1.30;;;31.00;80.90;;;;;;4952810;29;20187;-71
2022/09/01 11:04:17;;;;;;;1.30;1.20;;;31.20;78.00;;;;;;4951717;29;20287;-72
2022/09/01 11:06:54;;;;;;;1.63;1.30;;;31.30;78.40;;;;;;4933818;29;20195;-72
2022/09/01 11:09:39;;;;;;;2.00;1.15;;;31.40;75.40;;;;;;4948180;29;20191;-74
2022/09/01 11:12:26;;;;;;;1.50;1.10;;;31.50;71.40;;;;;;4932414;29;20169;-73
2022/09/01 11:14:56;;;;;;;1.70;1.30;;;31.40;70.10;;;;;;4936144;29;20271;-72
2022/09/01 11:17:26;;;;;;;1.30;1.20;;;31.40;72.50;;;;;;4952009;29;20181;-73
2022/09/01 11:20:13;;;;;;;1.90;1.45;;;31.50;73.00;;;;;;4937232;29;20180;-73
2022/09/01 11:22:57;;;;;;;1.85;1.30;;;31.60;71.90;;;;;;4952041;29;20204;-73
2022/09/01 11:25:58;;;;;;;2.03;1.08;;;31.50;71.30;;;;;;4936297;29;20215;-75
2022/09/01 11:28:30;;;;;;;1.20;1.05;;;31.50;68.20;;;;;;4918634;29;20283;-73
2022/09/01 11:31:07;;;;;;;1.65;1.25;;;31.30;69.50;;;;;;4934217;29;20216;-71
2022/09/01 11:33:42;;;;;;;1.92;1.30;;;31.20;68.10;;;;;;4952046;29;20271;-69
2022/09/01 11:36:17;;;;;;;1.50;1.25;;;30.90;65.50;;;;;;4922787;29;20177;-72
2022/09/01 11:38:46;;;;;;;1.25;1.15;;;30.60;67.60;;;;;;4951220;29;20208;-71
2022/09/01 11:41:22;;;;;;;1.25;1.15;;;30.30;68.40;;;;;;4952106;29;20240;-72
2022/09/01 11:43:57;;;;;;;1.63;1.20;;;30.10;66.80;;;;;;4949630;29;20181;-71
2022/09/01 11:46:34;;;;;;;2.20;1.20;;;30.00;68.60;;;;;;4935566;29;20176;-73
2022/09/01 11:49:22;;;;;;;1.98;1.30;;;30.00;67.50;;;;;;4938820;29;20197;-73
2022/09/01 11:51:48;;;;;;;1.63;1.33;;;30.00;68.20;;;;;;4935429;29;20201;-73
2022/09/01 11:54:14;;;;;;;1.83;1.30;;;30.10;69.30;;;;;;4935385;29;20184;-72
2022/09/01 11:56:40;;;;;;;1.17;1.08;;;30.10;69.60;;;;;;4935483;29;20226;-73
2022/09/01 11:59:09;;;;;;;1.65;1.40;;;30.10;69.20;;;;;;4936466;29;20205;-77
2022/09/01 12:01:38;;;;;;;1.42;1.30;;;30.00;65.80;;;;;;4952237;28;20204;-73
2022/09/01 12:04:27;;;;;;;2.35;1.33;;;29.80;65.60;;;;;;4934730;29;20549;-77
2022/09/01 12:07:01;;;;;;;1.92;1.35;;;29.60;65.40;;;;;;4937794;29;20201;-74
2022/09/01 12:09:41;;;;;;;2.05;1.45;;;29.40;65.70;;;;;;4943071;29;20280;-76
2022/09/01 12:12:25;;;;;;;1.25;1.15;;;29.20;66.60;;;;;;4938622;29;20212;-77
2022/09/01 12:14:58;;;;;;;2.35;1.38;;;29.20;67.90;;;;;;4939631;29;20197;-76
2022/09/01 12:17:24;;;;;;;1.77;1.60;;;29.30;67.40;;;;;;4938285;29;20196;-77
2022/09/01 12:19:50;;;;;;;1.63;1.45;;;29.40;66.50;;;;;;4938790;29;20206;-76
2022/09/01 12:22:21;;;;;;;1.63;1.25;;;29.40;66.90;;;;;;4949064;29;20267;-77
2022/09/01 12:24:52;;;;;;;1.48;1.38;;;29.40;67.20;;;;;;4939126;29;20208;-79
2022/09/01 12:27:22;;;;;;;1.73;1.50;;;29.50;68.20;;;;;;4939209;29;20204;-77
2022/09/01 12:29:48;;;;;;;1.23;1.13;;;29.60;66.80;;;;;;4939144;29;20336;-76
2022/09/01 12:32:15;;;;;;;1.92;1.20;;;29.60;66.30;;;;;;4932099;29;20292;-76
2022/09/01 12:34:49;;;;;;;2.67;1.40;;;29.50;65.70;;;;;;4939255;29;20199;-78
2022/09/01 12:37:15;;;;;;;1.85;1.48;;;29.30;64.70;;;;;;4938292;29;20203;-78
2022/09/01 12:39:47;;;;;;;1.90;1.40;;;29.10;65.00;;;;;;4954707;29;20181;-78
2022/09/01 12:42:18;;;;;;;2.22;1.60;;;29.00;65.20;;;;;;4938598;29;20177;-76
2022/09/01 12:45:08;;;;;;;1.58;1.48;;;28.80;65.50;;;;;;4954583;29;20182;-77
2022/09/01 12:47:46;;;;;;;2.13;1.35;;;28.70;65.20;;;;;;4943970;29;20227;-79
2022/09/01 12:50:14;;;;;;;2.17;1.38;;;28.60;66.00;;;;;;4956853;29;20274;-76
2022/09/01 12:53:03;;;;;;;1.75;1.35;;;28.50;65.40;;;;;;4954602;28;20189;-77
2022/09/01 12:55:31;;;;;;;1.83;1.60;;;28.30;64.80;;;;;;4938501;29;20209;-76
2022/09/01 12:58:02;;;;;;;2.28;1.50;;;28.20;66.20;;;;;;4937582;29;20201;-76
2022/09/01 13:00:35;;;;;;;2.00;1.80;;;28.30;67.20;;;;;;4933144;29;20236;-78
2022/09/01 13:03:20;;;;;;;1.98;1.80;;;28.40;67.70;;;;;;4943017;29;20201;-76
2022/09/01 13:05:59;;;;;;;1.60;1.50;;;28.50;66.30;;;;;;4939826;29;20181;-76
2022/09/01 13:08:31;;;;;;;1.60;1.50;;;28.60;65.90;;;;;;4955047;29;20229;-75
2022/09/01 13:11:07;;;;;;;2.50;1.67;;;28.50;65.90;;;;;;4953073;29;20173;-76
2022/09/01 13:13:36;;;;;;;1.77;1.35;;;28.40;65.10;;;;;;4947435;29;20236;-75
2022/09/01 13:16:09;;;;;;;2.45;1.55;;;28.30;65.70;;;;;;4963688;29;20200;-77